Time,TemperatureF,DewpointF,PressureIn,WindDirection,WindDirectionDegrees,WindSpeedMPH,WindSpeedGustMPH,Humidity,HourlyPrecipIn,Conditions,Clouds,dailyrainin,SoftwareType,DateUTC
2013-08-08 00:22:00,61.0,41.0,-100.00,West,279,1.0,4.0,48,-99.99,,,-99.99,,2013-08-08 07:22:00,
2013-08-08 00:43:00,61.0,36.0,-100.00,SW,222,3.0,6.0,39,-99.99,,,-99.99,,2013-08-08 07:43:00,
2013-08-08 00:53:00,61.0,36.0,-100.00,SW,222,3.0,6.0,39,-99.99,,,-99.99,,2013-08-08 07:53:00,
2013-08-08 01:01:00,62.0,34.0,-100.00,WSW,254,2.0,4.0,35,-99.99,,,-99.99,,2013-08-08 08:01:00,
2013-08-08 01:11:00,62.0,34.0,-100.00,WSW,254,2.0,4.0,35,-99.99,,,-99.99,,2013-08-08 08:11:00,
2013-08-08 01:21:00,61.0,35.0,-100.00,NW,304,1.0,2.0,37,-99.99,,,-99.99,,2013-08-08 08:21:00,
2013-08-08 01:32:00,61.0,32.0,-100.00,North,349,0.0,1.0,34,-99.99,,,-99.99,,2013-08-08 08:32:00,
2013-08-08 02:11:00,62.0,30.0,-100.00,WSW,245,1.0,3.0,30,-99.99,,,-99.99,,2013-08-08 09:11:00,
2013-08-08 02:22:00,61.0,29.0,-100.00,SW,232,1.0,4.0,29,-99.99,,,-99.99,,2013-08-08 09:22:00,
2013-08-08 02:32:00,61.0,27.0,-100.00,SW,222,3.0,6.0,27,-99.99,,,-99.99,,2013-08-08 09:32:00,
2013-08-08 02:53:00,61.0,29.0,-100.00,WNW,291,1.0,4.0,30,-99.99,,,-99.99,,2013-08-08 09:53:00,
2013-08-08 03:01:00,61.0,30.0,-100.00,SW,229,2.0,5.0,31,-99.99,,,-99.99,,2013-08-08 10:01:00,
2013-08-08 03:11:00,61.0,30.0,-100.00,SW,227,3.0,5.0,31,-99.99,,,-99.99,,2013-08-08 10:11:00,
2013-08-08 03:22:00,61.0,30.0,-100.00,SW,227,3.0,5.0,31,-99.99,,,-99.99,,2013-08-08 10:22:00,
2013-08-08 03:32:00,61.0,29.0,-100.00,SW,234,2.0,6.0,29,-99.99,,,-99.99,,2013-08-08 10:32:00,
2013-08-08 03:43:00,63.0,27.0,-100.00,SW,223,4.0,7.0,25,-99.99,,,-99.99,,2013-08-08 10:43:00,
2013-08-08 03:52:00,63.0,27.0,-100.00,SW,223,4.0,7.0,25,-99.99,,,-99.99,,2013-08-08 10:52:00,
2013-08-08 04:01:00,63.0,27.0,-100.00,SW,224,4.0,7.0,25,-99.99,,,-99.99,,2013-08-08 11:01:00,
2013-08-08 04:21:00,62.0,26.0,-100.00,SW,230,3.0,7.0,25,-99.99,,,-99.99,,2013-08-08 11:21:00,
2013-08-08 04:32:00,63.0,27.0,-100.00,WSW,243,2.0,7.0,25,-99.99,,,-99.99,,2013-08-08 11:32:00,
2013-08-08 05:01:00,59.0,27.0,-100.00,ENE,58,0.0,2.0,29,-99.99,,,-99.99,,2013-08-08 12:01:00,
2013-08-08 05:11:00,59.0,27.0,-100.00,ENE,58,0.0,2.0,29,-99.99,,,-99.99,,2013-08-08 12:11:00,
2013-08-08 05:52:00,60.0,24.0,-100.00,South,181,0.0,1.0,25,-99.99,,,-99.99,,2013-08-08 12:52:00,
2013-08-08 06:01:00,60.0,24.0,-100.00,SSE,165,0.0,2.0,25,-99.99,,,-99.99,,2013-08-08 13:01:00,
2013-08-08 06:22:00,60.0,23.0,-100.00,ENE,67,1.0,3.0,24,-99.99,,,-99.99,,2013-08-08 13:22:00,
2013-08-08 06:52:00,59.0,21.0,-100.00,ENE,77,1.0,2.0,23,-99.99,,,-99.99,,2013-08-08 13:52:00,
2013-08-08 07:02:00,60.0,21.0,-100.00,ENE,72,0.0,2.0,22,-99.99,,,-99.99,,2013-08-08 14:02:00,
2013-08-08 07:22:00,63.0,20.0,-100.00,North,-999,0.0,0.0,19,-99.99,,,-99.99,,2013-08-08 14:22:00,
2013-08-08 07:32:00,66.0,21.0,-100.00,North,-999,0.0,0.0,18,-99.99,,,-99.99,,2013-08-08 14:32:00,
2013-08-08 07:52:00,67.0,22.0,-100.00,NE,56,1.0,2.0,18,-99.99,,,-99.99,,2013-08-08 14:52:00,
2013-08-08 08:22:00,71.0,16.0,-100.00,WSW,245,4.0,8.0,12,-99.99,,,-99.99,,2013-08-08 15:22:00,
2013-08-08 08:32:00,72.0,15.0,-100.00,WSW,248,5.0,9.0,11,-99.99,,,-99.99,,2013-08-08 15:32:00,
2013-08-08 09:01:00,74.0,12.0,-100.00,WSW,254,6.0,11.0,9,-99.99,,,-99.99,,2013-08-08 16:01:00,
2013-08-08 09:21:00,75.0,15.0,-100.00,WSW,244,6.0,11.0,10,-99.99,,,-99.99,,2013-08-08 16:21:00,
2013-08-08 09:52:00,76.0,16.0,-100.00,WSW,257,7.0,13.0,10,-99.99,,,-99.99,,2013-08-08 16:52:00,
2013-08-08 10:01:00,77.0,18.0,-100.00,WSW,254,8.0,14.0,11,-99.99,,,-99.99,,2013-08-08 17:01:00,
2013-08-08 10:11:00,77.0,18.0,-100.00,WSW,251,8.0,13.0,11,-99.99,,,-99.99,,2013-08-08 17:11:00,
2013-08-08 10:21:00,78.0,19.0,-100.00,West,262,9.0,17.0,11,-99.99,,,-99.99,,2013-08-08 17:21:00,
2013-08-08 10:32:00,78.0,19.0,-100.00,West,262,9.0,17.0,11,-99.99,,,-99.99,,2013-08-08 17:32:00,
2013-08-08 11:01:00,80.0,19.0,-100.00,West,261,9.0,17.0,10,-99.99,,,-99.99,,2013-08-08 18:01:00,
2013-08-08 11:21:00,81.0,19.0,-100.00,WSW,251,10.0,18.0,10,-99.99,,,-99.99,,2013-08-08 18:21:00,
2013-08-08 11:32:00,81.0,19.0,-100.00,WSW,257,10.0,17.0,10,-99.99,,,-99.99,,2013-08-08 18:32:00,
2013-08-08 11:43:00,82.0,20.0,-100.00,West,260,10.0,17.0,10,-99.99,,,-99.99,,2013-08-08 18:43:00,
2013-08-08 11:52:00,82.0,20.0,-100.00,West,260,10.0,17.0,10,-99.99,,,-99.99,,2013-08-08 18:52:00,
2013-08-08 12:01:00,83.0,21.0,-100.00,West,264,10.0,18.0,10,-99.99,,,-99.99,,2013-08-08 19:01:00,
2013-08-08 12:21:00,83.0,21.0,-100.00,West,260,10.0,18.0,10,-99.99,,,-99.99,,2013-08-08 19:21:00,
2013-08-08 12:32:00,83.0,21.0,-100.00,WSW,258,10.0,18.0,10,-99.99,,,-99.99,,2013-08-08 19:32:00,
2013-08-08 12:43:00,84.0,22.0,-100.00,West,263,9.0,15.0,10,-99.99,,,-99.99,,2013-08-08 19:43:00,
2013-08-08 13:01:00,83.0,21.0,-100.00,WSW,249,11.0,18.0,10,-99.99,,,-99.99,,2013-08-08 20:01:00,
2013-08-08 13:22:00,84.0,24.0,-100.00,West,267,10.0,19.0,11,-99.99,,,-99.99,,2013-08-08 20:22:00,
2013-08-08 13:32:00,84.0,24.0,-100.00,West,265,10.0,17.0,11,-99.99,,,-99.99,,2013-08-08 20:32:00,
2013-08-08 13:52:00,84.0,24.0,-100.00,West,277,9.0,19.0,11,-99.99,,,-99.99,,2013-08-08 20:52:00,
2013-08-08 14:01:00,85.0,25.0,-100.00,West,268,10.0,17.0,11,-99.99,,,-99.99,,2013-08-08 21:01:00,
2013-08-08 14:42:00,85.0,27.0,-100.00,West,273,10.0,18.0,12,-99.99,,,-99.99,,2013-08-08 21:42:00,
2013-08-08 14:52:00,85.0,27.0,-100.00,West,273,10.0,18.0,12,-99.99,,,-99.99,,2013-08-08 21:52:00,
2013-08-08 15:02:00,84.0,26.0,-100.00,West,268,10.0,19.0,12,-99.99,,,-99.99,,2013-08-08 22:02:00,
2013-08-08 15:32:00,84.0,26.0,-100.00,West,273,11.0,21.0,12,-99.99,,,-99.99,,2013-08-08 22:32:00,
2013-08-08 15:45:00,83.0,27.0,-100.00,West,264,11.0,21.0,13,-99.99,,,-99.99,,2013-08-08 22:45:00,
2013-08-08 15:53:00,83.0,27.0,-100.00,West,264,11.0,21.0,13,-99.99,,,-99.99,,2013-08-08 22:53:00,
2013-08-08 16:02:00,84.0,28.0,-100.00,West,261,10.0,19.0,13,-99.99,,,-99.99,,2013-08-08 23:02:00,
2013-08-08 16:12:00,83.0,29.0,-100.00,WSW,255,12.0,21.0,14,-99.99,,,-99.99,,2013-08-08 23:12:00,
2013-08-08 16:22:00,83.0,29.0,-100.00,WSW,252,11.0,22.0,14,-99.99,,,-99.99,,2013-08-08 23:22:00,
2013-08-08 16:33:00,83.0,29.0,-100.00,WSW,247,11.0,18.0,14,-99.99,,,-99.99,,2013-08-08 23:33:00,
2013-08-08 16:44:00,83.0,27.0,-100.00,West,260,10.0,20.0,13,-99.99,,,-99.99,,2013-08-08 23:44:00,
2013-08-08 16:53:00,83.0,27.0,-100.00,West,260,10.0,20.0,13,-99.99,,,-99.99,,2013-08-08 23:53:00,
2013-08-08 17:12:00,84.0,28.0,-100.00,West,266,10.0,21.0,13,-99.99,,,-99.99,,2013-08-09 00:12:00,
2013-08-08 17:22:00,83.0,27.0,-100.00,WSW,257,11.0,20.0,13,-99.99,,,-99.99,,2013-08-09 00:22:00,
2013-08-08 17:33:00,83.0,27.0,-100.00,West,265,10.0,19.0,13,-99.99,,,-99.99,,2013-08-09 00:33:00,
2013-08-08 17:53:00,83.0,27.0,-100.00,WSW,257,8.0,18.0,13,-99.99,,,-99.99,,2013-08-09 00:53:00,
2013-08-08 18:01:00,82.0,28.0,-100.00,West,262,10.0,17.0,14,-99.99,,,-99.99,,2013-08-09 01:01:00,
2013-08-08 18:22:00,81.0,31.0,-100.00,WSW,258,10.0,17.0,16,-99.99,,,-99.99,,2013-08-09 01:22:00,
2013-08-08 19:03:00,79.0,34.0,-100.00,WSW,255,8.0,16.0,20,-99.99,,,-99.99,,2013-08-09 02:03:00,
2013-08-08 19:22:00,78.0,37.0,-100.00,West,259,7.0,13.0,23,-99.99,,,-99.99,,2013-08-09 02:22:00,
2013-08-08 19:33:00,77.0,37.0,-100.00,WSW,254,8.0,14.0,24,-99.99,,,-99.99,,2013-08-09 02:33:00,
2013-08-08 19:44:00,74.0,38.0,-100.00,WSW,246,8.0,14.0,27,-99.99,,,-99.99,,2013-08-09 02:44:00,
2013-08-08 19:54:00,73.0,38.0,-100.00,WSW,245,6.0,12.0,28,-99.99,,,-99.99,,2013-08-09 02:54:00,
2013-08-08 20:03:00,72.0,39.0,-100.00,WSW,245,6.0,10.0,30,-99.99,,,-99.99,,2013-08-09 03:03:00,
2013-08-08 20:12:00,72.0,39.0,-100.00,WSW,245,6.0,10.0,30,-99.99,,,-99.99,,2013-08-09 03:12:00,
2013-08-08 20:33:00,70.0,42.0,-100.00,SW,230,5.0,8.0,36,-99.99,,,-99.99,,2013-08-09 03:33:00,
2013-08-08 21:01:00,67.0,44.0,-100.00,SW,230,4.0,6.0,43,-99.99,,,-99.99,,2013-08-09 04:01:00,
2013-08-08 21:12:00,67.0,44.0,-100.00,SW,230,4.0,6.0,43,-99.99,,,-99.99,,2013-08-09 04:12:00,
2013-08-08 21:33:00,64.0,43.0,-100.00,SSW,210,2.0,4.0,46,-99.99,,,-99.99,,2013-08-09 04:33:00,
2013-08-08 22:01:00,63.0,42.0,-100.00,SSW,208,3.0,4.0,47,-99.99,,,-99.99,,2013-08-09 05:01:00,
2013-08-08 22:11:00,63.0,42.0,-100.00,SSW,208,3.0,4.0,47,-99.99,,,-99.99,,2013-08-09 05:11:00,
2013-08-08 22:21:00,62.0,42.0,-100.00,SSW,209,3.0,4.0,48,-99.99,,,-99.99,,2013-08-09 05:21:00,
2013-08-08 22:42:00,62.0,43.0,-100.00,SSW,194,3.0,5.0,50,-99.99,,,-99.99,,2013-08-09 05:42:00,
2013-08-08 22:52:00,62.0,43.0,-100.00,SSW,194,3.0,5.0,50,-99.99,,,-99.99,,2013-08-09 05:52:00,
2013-08-08 23:01:00,60.0,42.0,-100.00,South,175,1.0,2.0,51,-99.99,,,-99.99,,2013-08-09 06:01:00,
2013-08-08 23:32:00,60.0,43.0,-100.00,East,99,0.0,2.0,53,-99.99,,,-99.99,,2013-08-09 06:32:00,
2013-08-08 23:43:00,60.0,43.0,-100.00,SSE,150,1.0,3.0,53,-99.99,,,-99.99,,2013-08-09 06:43:00,
2013-08-08 23:52:00,60.0,43.0,-100.00,SSE,150,1.0,3.0,53,-99.99,,,-99.99,,2013-08-09 06:52:00,